createdAt,value
2018-08-13T00:00:40.142Z,5.37
2018-08-13T00:03:08.325Z,4.70
2018-08-13T00:05:36.383Z,3.55
2018-08-13T00:08:04.531Z,3.60
2018-08-13T00:10:32.591Z,3.98
2018-08-13T00:13:00.656Z,2.83
2018-08-13T00:15:28.727Z,3.77
2018-08-13T00:17:56.772Z,3.10
2018-08-13T00:20:24.876Z,4.77
2018-08-13T00:22:52.986Z,3.33
2018-08-13T00:25:21.076Z,3.67
2018-08-13T00:27:49.147Z,3.50
2018-08-13T00:30:17.210Z,3.15
2018-08-13T00:32:45.519Z,4.03
2018-08-13T00:35:13.629Z,4.28
2018-08-13T00:37:41.736Z,3.30
2018-08-13T00:40:11.382Z,3.47
2018-08-13T00:42:39.460Z,3.33
2018-08-13T00:45:08.532Z,4.40
2018-08-13T00:47:36.652Z,3.33
2018-08-13T00:50:07.528Z,4.57
2018-08-13T00:52:35.579Z,3.53
2018-08-13T00:55:03.907Z,5.50
2018-08-13T00:57:31.967Z,3.53
2018-08-13T01:00:00.017Z,3.53
2018-08-13T01:02:34.879Z,4.17
2018-08-13T01:05:02.937Z,3.17
2018-08-13T01:07:31.029Z,3.83
2018-08-13T01:09:59.127Z,3.63
2018-08-13T01:12:27.206Z,5.07
2018-08-13T01:14:55.279Z,4.87
2018-08-13T01:17:23.393Z,3.70
2018-08-13T01:19:51.481Z,4.67
2018-08-13T01:22:19.560Z,5.17
2018-08-13T01:24:47.624Z,3.40
2018-08-13T01:27:21.068Z,4.03
2018-08-13T01:29:49.275Z,3.87
2018-08-13T01:32:17.344Z,2.90
2018-08-13T01:34:45.710Z,3.37
2018-08-13T01:37:13.835Z,3.70
2018-08-13T01:39:41.895Z,5.03
2018-08-13T01:42:09.971Z,4.37
2018-08-13T01:44:38.070Z,3.13
2018-08-13T01:47:06.189Z,2.97
2018-08-13T01:49:34.270Z,3.87
2018-08-13T01:52:02.820Z,3.70
2018-08-13T01:54:30.859Z,3.83
2018-08-13T01:56:58.892Z,3.67
2018-08-13T01:59:26.966Z,2.97
2018-08-13T02:01:55.129Z,4.43
2018-08-13T02:04:23.597Z,3.17
2018-08-13T02:06:51.632Z,3.33
2018-08-13T02:09:19.699Z,3.67
2018-08-13T02:11:47.799Z,3.53
2018-08-13T02:14:15.876Z,3.23
2018-08-13T02:16:43.954Z,3.20
2018-08-13T02:19:12.036Z,3.20
2018-08-13T02:21:40.138Z,3.90
2018-08-13T02:24:08.232Z,4.03
2018-08-13T02:26:36.307Z,5.50
2018-08-13T02:29:04.366Z,5.03
2018-08-13T02:31:32.407Z,3.60
2018-08-13T02:34:00.468Z,3.00
2018-08-13T02:36:28.547Z,3.33
2018-08-13T02:38:56.682Z,2.60
2018-08-13T02:41:25.807Z,5.20
2018-08-13T02:43:53.872Z,4.07
2018-08-13T02:46:21.950Z,3.17
2018-08-13T02:48:50.003Z,3.73
2018-08-13T02:51:18.091Z,4.17
2018-08-13T02:53:46.141Z,4.20
2018-08-13T02:56:14.223Z,3.80
2018-08-13T02:58:42.292Z,3.73
2018-08-13T03:01:10.332Z,4.93
2018-08-13T03:03:38.403Z,3.90
2018-08-13T03:06:06.648Z,3.83
2018-08-13T03:08:34.758Z,3.30
2018-08-13T03:11:02.792Z,3.87
2018-08-13T03:13:30.864Z,3.60
2018-08-13T03:15:58.903Z,3.30
2018-08-13T03:18:27.003Z,3.33
2018-08-13T03:20:55.055Z,2.80
2018-08-13T03:23:23.133Z,4.43
2018-08-13T03:25:51.205Z,3.60
2018-08-13T03:28:19.281Z,4.00
2018-08-13T03:30:47.354Z,4.80
2018-08-13T03:33:15.403Z,4.40
2018-08-13T03:35:43.443Z,5.43
2018-08-13T03:38:11.518Z,7.23
2018-08-13T03:40:39.576Z,3.70
2018-08-13T03:43:07.655Z,3.30
2018-08-13T03:45:35.715Z,4.30
2018-08-13T03:48:03.826Z,6.00
2018-08-13T03:50:31.881Z,3.53
2018-08-13T03:52:59.903Z,2.90
2018-08-13T03:55:28.055Z,4.40
2018-08-13T03:57:56.101Z,4.97
2018-08-13T04:00:24.204Z,4.67
2018-08-13T04:02:52.550Z,4.93
2018-08-13T04:05:20.623Z,4.50
2018-08-13T04:07:48.713Z,6.83
2018-08-13T04:10:16.928Z,4.23
2018-08-13T04:12:45.069Z,4.20
2018-08-13T04:15:14.287Z,3.50
2018-08-13T04:17:43.032Z,4.27
2018-08-13T04:20:12.304Z,3.80
2018-08-13T04:22:40.375Z,4.10
2018-08-13T04:25:09.612Z,5.13
2018-08-13T04:27:38.197Z,5.17
2018-08-13T04:30:13.671Z,3.90
2018-08-13T04:32:42.432Z,7.27
2018-08-13T04:35:10.404Z,3.20
2018-08-13T04:37:38.689Z,3.60
2018-08-13T04:40:09.172Z,3.47
2018-08-13T04:42:37.257Z,3.43
2018-08-13T04:45:06.107Z,3.00
2018-08-13T04:47:34.312Z,6.90
2018-08-13T04:50:02.440Z,4.57
2018-08-13T04:52:30.529Z,4.60
2018-08-13T04:54:58.588Z,6.57
2018-08-13T04:57:26.772Z,3.97
2018-08-13T04:59:55.195Z,5.47
2018-08-13T05:02:23.475Z,2.97
2018-08-13T05:04:51.538Z,4.97
2018-08-13T05:07:20.614Z,5.08
2018-08-13T05:09:48.650Z,6.53
2018-08-13T05:12:16.688Z,3.87
2018-08-13T05:14:44.751Z,4.47
2018-08-13T05:17:12.780Z,4.47
2018-08-13T05:19:40.863Z,4.08
2018-08-13T05:22:08.926Z,3.52
2018-08-13T05:24:36.963Z,3.67
2018-08-13T05:27:05.275Z,5.72
2018-08-13T05:29:33.383Z,4.12
2018-08-13T05:32:01.439Z,4.78
2018-08-13T05:34:29.503Z,5.60
2018-08-13T05:36:57.559Z,4.85
2018-08-13T05:39:25.657Z,5.72
2018-08-13T05:41:53.707Z,4.67
2018-08-13T05:44:21.748Z,7.42
2018-08-13T05:46:49.799Z,5.45
2018-08-13T05:49:17.880Z,3.90
2018-08-13T05:51:45.943Z,5.53
2018-08-13T05:54:13.991Z,5.12
2018-08-13T05:56:42.019Z,5.25
2018-08-13T05:59:10.358Z,3.77
2018-08-13T06:01:38.387Z,5.70
2018-08-13T06:04:06.844Z,5.20
2018-08-13T06:06:35.215Z,4.62
2018-08-13T06:09:03.329Z,4.97
2018-08-13T06:11:31.416Z,10.58
2018-08-13T06:13:59.460Z,4.25
2018-08-13T06:16:27.543Z,5.17
2018-08-13T06:18:55.599Z,4.80
2018-08-13T06:21:23.707Z,5.87
2018-08-13T06:23:52.115Z,6.97
2018-08-13T06:26:20.209Z,5.58
2018-08-13T06:28:48.288Z,5.83
2018-08-13T06:31:16.345Z,5.05
2018-08-13T06:33:44.396Z,9.25
2018-08-13T06:36:12.537Z,5.42
2018-08-13T06:38:40.597Z,6.62
2018-08-13T06:41:08.965Z,6.17
2018-08-13T06:43:37.014Z,7.03
2018-08-13T06:46:05.063Z,7.30
2018-08-13T06:48:33.107Z,6.20
2018-08-13T06:51:01.159Z,5.72
2018-08-13T06:53:29.357Z,7.42
2018-08-13T06:55:57.422Z,6.95
2018-08-13T06:58:25.467Z,10.25
2018-08-13T07:00:53.640Z,6.92
2018-08-13T07:03:21.708Z,9.58
2018-08-13T07:05:49.762Z,7.15
2018-08-13T07:08:17.847Z,7.42
2018-08-13T07:10:45.900Z,4.92
2018-08-13T07:13:14.038Z,7.65
2018-08-13T07:15:42.118Z,3.80
2018-08-13T07:18:13.361Z,3.52
2018-08-13T07:20:41.500Z,6.22
2018-08-13T07:23:09.595Z,4.65
2018-08-13T07:25:37.763Z,4.55
2018-08-13T07:28:06.690Z,4.30
2018-08-13T07:30:34.771Z,4.47
2018-08-13T07:33:02.948Z,3.05
2018-08-13T07:35:31.757Z,4.17
2018-08-13T07:38:00.066Z,4.55
2018-08-13T07:40:28.120Z,4.90
2018-08-13T07:42:56.220Z,3.95
2018-08-13T07:45:24.455Z,4.03
2018-08-13T07:47:52.652Z,4.03
2018-08-13T07:50:20.736Z,3.50
2018-08-13T07:52:49.240Z,6.12
2018-08-13T07:55:17.331Z,4.17
2018-08-13T07:57:45.537Z,9.00
2018-08-13T08:00:15.634Z,4.80
2018-08-13T08:02:43.893Z,4.75
2018-08-13T08:05:12.384Z,4.87
2018-08-13T08:07:40.571Z,5.80
2018-08-13T08:10:10.485Z,5.37
2018-08-13T08:12:38.627Z,4.28
2018-08-13T08:15:11.599Z,6.53
2018-08-13T08:17:39.847Z,4.25
2018-08-13T08:20:07.903Z,6.67
2018-08-13T08:22:36.036Z,5.87
2018-08-13T08:25:04.939Z,7.50
2018-08-13T08:27:33.156Z,4.53
2018-08-13T08:30:01.212Z,8.40
2018-08-13T08:32:29.544Z,7.85
2018-08-13T08:34:57.616Z,4.62
2018-08-13T08:37:25.691Z,4.40
2018-08-13T08:39:53.753Z,7.22
2018-08-13T08:42:21.814Z,4.10
2018-08-13T08:44:50.230Z,4.42
2018-08-13T08:47:18.314Z,5.10
2018-08-13T08:49:46.364Z,9.23
2018-08-13T08:52:14.645Z,6.28
2018-08-13T08:54:42.744Z,4.10
2018-08-13T08:57:10.834Z,10.13
2018-08-13T08:59:38.923Z,5.22
2018-08-13T09:02:07.107Z,5.12
2018-08-13T09:04:35.187Z,4.47
2018-08-13T09:07:03.247Z,5.45
2018-08-13T09:09:31.476Z,4.58
2018-08-13T09:11:59.947Z,5.72
2018-08-13T09:14:28.132Z,4.03
2018-08-13T09:16:56.286Z,4.12
2018-08-13T09:19:35.861Z,6.05
2018-08-13T09:22:15.444Z,5.85
2018-08-13T09:24:54.827Z,5.15
2018-08-13T09:27:34.320Z,6.58
2018-08-13T09:30:13.682Z,4.65
2018-08-13T09:32:53.181Z,6.65
2018-08-13T09:35:23.912Z,3.70
2018-08-13T09:37:52.778Z,4.00
2018-08-13T09:40:20.907Z,3.55
2018-08-13T09:42:49.039Z,4.65
2018-08-13T09:45:17.226Z,4.00
2018-08-13T09:47:45.395Z,3.52
2018-08-13T09:50:15.528Z,5.92
2018-08-13T09:52:44.230Z,5.12
2018-08-13T09:55:12.884Z,4.72
2018-08-13T09:57:41.181Z,6.87
2018-08-13T10:00:15.041Z,9.75
2018-08-13T10:02:44.509Z,6.62
2018-08-13T10:05:12.676Z,5.53
2018-08-13T10:07:41.008Z,5.15
2018-08-13T10:10:10.011Z,3.98
2018-08-13T10:12:38.192Z,3.80
2018-08-13T10:15:06.697Z,4.70
2018-08-13T10:17:34.817Z,5.83
2018-08-13T10:20:02.840Z,4.10
2018-08-13T10:22:30.920Z,5.87
2018-08-13T10:24:58.980Z,4.78
2018-08-13T10:27:27.139Z,6.30
2018-08-13T10:29:55.357Z,7.25
2018-08-13T10:32:23.429Z,5.25
2018-08-13T10:34:51.721Z,5.92
2018-08-13T10:37:19.818Z,5.83
2018-08-13T10:39:47.872Z,5.90
2018-08-13T10:42:15.970Z,9.63
2018-08-13T10:44:44.100Z,5.08
2018-08-13T10:47:12.162Z,8.50
2018-08-13T10:49:40.283Z,6.42
2018-08-13T10:52:08.320Z,6.12
2018-08-13T10:54:36.430Z,5.33
2018-08-13T10:57:04.485Z,5.20
2018-08-13T10:59:32.611Z,7.08
2018-08-13T11:02:00.668Z,5.33
2018-08-13T11:04:28.726Z,5.50
2018-08-13T11:06:56.888Z,11.22
2018-08-13T11:09:25.132Z,5.20
2018-08-13T11:11:53.305Z,5.28
2018-08-13T11:14:21.490Z,4.62
2018-08-13T11:16:50.548Z,5.22
2018-08-13T11:19:18.966Z,5.75
2018-08-13T11:21:47.352Z,6.72
2018-08-13T11:24:15.629Z,4.60
2018-08-13T11:26:43.680Z,7.97
2018-08-13T11:29:11.780Z,6.05
2018-08-13T11:31:39.823Z,4.22
2018-08-13T11:34:07.916Z,4.17
2018-08-13T11:36:35.959Z,6.40
2018-08-13T11:39:06.558Z,4.42
2018-08-13T11:41:34.648Z,4.35
2018-08-13T11:44:02.734Z,4.10
2018-08-13T11:46:32.319Z,8.13
2018-08-13T11:49:00.645Z,3.85
2018-08-13T11:51:29.084Z,3.72
2018-08-13T11:53:57.198Z,5.95
2018-08-13T11:56:25.468Z,4.22
2018-08-13T11:58:53.583Z,3.42
2018-08-13T12:01:21.756Z,3.30
2018-08-13T12:03:50.210Z,3.67
2018-08-13T12:06:18.278Z,3.77
2018-08-13T12:08:46.433Z,3.90
2018-08-13T12:11:14.504Z,11.03
2018-08-13T12:13:42.575Z,4.17
2018-08-13T12:16:10.700Z,3.72
2018-08-13T12:18:38.806Z,3.20
2018-08-13T12:21:07.640Z,4.12
2018-08-13T12:23:35.721Z,2.90
2018-08-13T12:26:03.822Z,3.67
2018-08-13T12:28:31.937Z,5.17
2018-08-13T12:31:00.085Z,3.30
2018-08-13T12:33:28.361Z,5.08
2018-08-13T12:35:56.518Z,3.50
2018-08-13T12:38:24.660Z,3.17
2018-08-13T12:40:52.961Z,3.60
2018-08-13T12:43:21.498Z,3.17
2018-08-13T12:45:49.750Z,3.95
2018-08-13T12:48:18.021Z,3.27
2018-08-13T12:50:46.177Z,3.27
2018-08-13T12:53:14.331Z,3.35
2018-08-13T12:55:42.468Z,2.98
2018-08-13T12:58:10.583Z,3.20
2018-08-13T13:00:38.718Z,3.35
2018-08-13T13:03:13.601Z,2.95
2018-08-13T13:05:41.735Z,4.95
2018-08-13T13:08:10.040Z,4.83
2018-08-13T13:10:38.354Z,3.95
2018-08-13T13:13:06.515Z,3.50
2018-08-13T13:15:34.689Z,3.60
2018-08-13T13:18:02.826Z,4.75
2018-08-13T13:20:30.970Z,3.52
2018-08-13T13:22:59.321Z,4.08
2018-08-13T13:25:27.436Z,5.83
2018-08-13T13:27:55.586Z,5.40
2018-08-13T13:30:24.093Z,4.47
2018-08-13T13:32:52.174Z,6.83
2018-08-13T13:35:20.563Z,4.25
2018-08-13T13:37:49.134Z,3.77
2018-08-13T13:40:20.337Z,3.75
2018-08-13T13:42:49.180Z,6.83
2018-08-13T13:45:18.469Z,3.40
2018-08-13T13:47:47.049Z,3.35
2018-08-13T13:50:17.361Z,6.08
2018-08-13T13:52:45.805Z,3.30
2018-08-13T13:55:15.141Z,3.52
2018-08-13T13:57:45.169Z,2.60
2018-08-13T14:00:16.302Z,2.67
2018-08-13T14:02:45.106Z,2.75
2018-08-13T14:05:13.678Z,2.65
2018-08-13T14:07:41.825Z,5.20
2018-08-13T14:10:12.888Z,4.17
2018-08-13T14:12:40.964Z,2.60
2018-08-13T14:15:10.730Z,4.50
2018-08-13T14:17:39.204Z,2.47
2018-08-13T14:20:08.127Z,2.80
2018-08-13T14:22:36.256Z,3.08
2018-08-13T14:25:05.205Z,2.42
2018-08-13T14:27:33.327Z,2.58
2018-08-13T14:30:01.380Z,5.05
2018-08-13T14:32:29.566Z,3.02
2018-08-13T14:34:57.684Z,2.80
2018-08-13T14:37:25.856Z,4.00
2018-08-13T14:39:54.031Z,3.15
2018-08-13T14:42:22.128Z,2.95
2018-08-13T14:44:50.606Z,3.58
2018-08-13T14:47:18.759Z,3.80
2018-08-13T14:49:46.887Z,3.85
2018-08-13T14:52:14.964Z,3.75
2018-08-13T14:54:43.044Z,4.58
2018-08-13T14:57:11.421Z,3.77
2018-08-13T14:59:39.569Z,5.65
2018-08-13T15:02:07.617Z,7.62
2018-08-13T15:04:35.700Z,4.03
2018-08-13T15:07:03.780Z,5.75
2018-08-13T15:09:32.008Z,4.25
2018-08-13T15:12:00.222Z,3.65
2018-08-13T15:14:28.356Z,4.45
2018-08-13T15:16:56.852Z,4.15
2018-08-13T15:19:25.325Z,4.08
2018-08-13T15:21:53.495Z,3.85
2018-08-13T15:24:22.007Z,3.37
2018-08-13T15:26:50.151Z,3.80
2018-08-13T15:29:18.227Z,4.35
2018-08-13T15:31:46.913Z,4.62
2018-08-13T15:34:15.037Z,4.03
2018-08-13T15:36:43.502Z,6.40
2018-08-13T15:39:12.048Z,4.17
2018-08-13T15:41:40.123Z,4.30
2018-08-13T15:44:08.186Z,4.62
2018-08-13T15:46:36.486Z,4.75
2018-08-13T15:49:04.622Z,5.60
2018-08-13T15:51:32.689Z,6.90
2018-08-13T15:54:00.964Z,7.30
2018-08-13T15:56:29.055Z,4.67
2018-08-13T15:58:57.130Z,5.47
2018-08-13T16:01:25.253Z,4.92
2018-08-13T16:03:53.591Z,5.55
2018-08-13T16:06:21.674Z,4.83
2018-08-13T16:08:49.781Z,4.47
2018-08-13T16:11:17.829Z,4.10
2018-08-13T16:13:45.888Z,4.05
2018-08-13T16:16:14.005Z,3.77
2018-08-13T16:18:42.068Z,3.40
2018-08-13T16:21:10.174Z,3.87
2018-08-13T16:23:38.289Z,3.30
2018-08-13T16:26:06.400Z,3.15
2018-08-13T16:28:34.471Z,2.87
2018-08-13T16:31:03.376Z,3.33
2018-08-13T16:33:31.483Z,3.50
2018-08-13T16:35:59.571Z,4.12
2018-08-13T16:38:28.350Z,2.77
2018-08-13T16:40:56.911Z,3.35
2018-08-13T16:43:25.120Z,3.40
2018-08-13T16:45:53.434Z,3.65
2018-08-13T16:48:21.531Z,3.70
2018-08-13T16:50:50.040Z,4.35
2018-08-13T16:53:18.204Z,4.22
2018-08-13T16:55:46.264Z,5.17
2018-08-13T16:58:14.394Z,4.30
2018-08-13T17:00:42.572Z,5.92
2018-08-13T17:03:10.682Z,5.33
2018-08-13T17:05:38.795Z,5.15
2018-08-13T17:08:06.975Z,4.30
2018-08-13T17:10:35.011Z,6.87
2018-08-13T17:13:03.266Z,4.60
2018-08-13T17:15:32.019Z,5.85
2018-08-13T17:18:01.361Z,5.40
2018-08-13T17:20:31.199Z,5.10
2018-08-13T17:22:59.671Z,6.15
2018-08-13T17:28:08.427Z,4.92
2018-08-13T17:30:36.487Z,6.05
2018-08-13T17:33:04.935Z,5.15
2018-08-13T17:35:34.262Z,4.58
2018-08-13T17:38:03.155Z,5.80
2018-08-13T17:40:31.482Z,4.60
2018-08-13T17:42:59.804Z,4.12
2018-08-13T17:45:27.872Z,3.85
2018-08-13T17:47:56.018Z,3.50
2018-08-13T17:50:24.609Z,3.92
2018-08-13T17:52:52.808Z,7.08
2018-08-13T17:55:21.121Z,3.98
2018-08-13T17:57:49.284Z,4.20
2018-08-13T18:00:22.437Z,4.72
2018-08-13T18:02:50.826Z,5.08
2018-08-13T18:05:21.027Z,4.75
2018-08-13T18:07:49.463Z,5.08
2018-08-13T18:10:20.329Z,4.60
2018-08-13T18:12:48.413Z,5.92
2018-08-13T18:15:17.075Z,5.00
2018-08-13T18:17:45.692Z,5.20
2018-08-13T18:20:13.799Z,5.00
2018-08-13T18:22:42.024Z,4.80
2018-08-13T18:25:11.672Z,4.70
2018-08-13T18:27:40.871Z,4.67
2018-08-13T18:30:11.844Z,4.83
2018-08-13T18:32:40.115Z,6.47
2018-08-13T18:35:08.280Z,5.55
2018-08-13T18:37:36.355Z,4.83
2018-08-13T18:40:06.231Z,5.40
2018-08-13T18:42:34.372Z,5.12
2018-08-13T18:45:02.435Z,4.60
2018-08-13T18:47:30.513Z,6.60
2018-08-13T18:49:58.589Z,6.80
2018-08-13T18:52:26.761Z,6.22
2018-08-13T18:54:54.990Z,6.40
2018-08-13T18:57:23.177Z,6.67
2018-08-13T18:59:52.469Z,8.70
2018-08-13T19:02:20.709Z,6.95
2018-08-13T19:04:49.238Z,8.25
2018-08-13T19:07:17.395Z,7.33
2018-08-13T19:09:45.532Z,7.97
2018-08-13T19:12:13.611Z,8.05
2018-08-13T19:14:41.693Z,8.03
2018-08-13T19:17:09.903Z,7.92
2018-08-13T19:19:38.038Z,8.25
2018-08-13T19:22:06.391Z,8.95
2018-08-13T19:24:34.493Z,8.23
2018-08-13T19:27:02.575Z,9.05
2018-08-13T19:29:30.751Z,8.48
2018-08-13T19:31:58.920Z,7.75
2018-08-13T19:34:27.147Z,8.45
2018-08-13T19:36:55.442Z,10.15
2018-08-13T19:39:23.655Z,12.25
2018-08-13T19:41:51.860Z,11.20
2018-08-13T19:44:20.221Z,11.40
2018-08-13T19:46:48.397Z,11.08
2018-08-13T19:49:16.549Z,11.35
2018-08-13T19:51:44.652Z,11.97
2018-08-13T19:54:13.067Z,11.05
2018-08-13T19:56:41.231Z,11.65
2018-08-13T19:59:09.668Z,12.93
2018-08-13T20:01:37.747Z,12.00
2018-08-13T20:04:05.868Z,14.50
2018-08-13T20:06:33.946Z,13.43
2018-08-13T20:09:02.114Z,13.20
2018-08-13T20:11:30.256Z,14.10
2018-08-13T20:13:58.368Z,13.13
2018-08-13T20:16:26.855Z,13.75
2018-08-13T20:18:55.009Z,15.20
2018-08-13T20:21:23.221Z,14.10
2018-08-13T20:23:51.480Z,13.00
2018-08-13T20:26:19.692Z,14.83
2018-08-13T20:28:48.115Z,14.58
2018-08-13T20:31:16.259Z,13.98
2018-08-13T20:33:44.348Z,15.23
2018-08-13T20:36:12.529Z,15.27
2018-08-13T20:38:40.658Z,17.63
2018-08-13T20:41:08.774Z,16.17
2018-08-13T20:43:37.060Z,15.53
2018-08-13T20:46:05.452Z,16.50
2018-08-13T20:48:33.671Z,15.48
2018-08-13T20:51:02.051Z,17.77
2018-08-13T20:53:30.154Z,16.43
2018-08-13T20:55:58.344Z,16.63
2018-08-13T20:58:26.535Z,15.30
2018-08-13T21:00:54.772Z,17.00
2018-08-13T21:03:22.901Z,14.90
2018-08-13T21:05:51.053Z,15.35
2018-08-13T21:08:19.169Z,18.03
2018-08-13T21:10:47.255Z,17.33
2018-08-13T21:13:15.456Z,18.07
2018-08-13T21:15:43.516Z,17.10
2018-08-13T21:18:11.604Z,17.73
2018-08-13T21:20:39.710Z,16.80
2018-08-13T21:23:07.860Z,17.70
2018-08-13T21:28:10.647Z,17.17
2018-08-13T21:30:38.817Z,18.07
2018-08-13T21:33:06.954Z,16.73
2018-08-13T21:35:35.072Z,20.43
2018-08-13T21:38:03.159Z,17.10
2018-08-13T21:40:31.341Z,18.07
2018-08-13T21:42:59.448Z,20.33
2018-08-13T21:45:27.512Z,18.97
2018-08-13T21:47:55.612Z,18.97
2018-08-13T21:50:24.041Z,19.77
2018-08-13T21:52:52.694Z,20.37
2018-08-13T21:55:20.980Z,19.23
2018-08-13T21:57:49.095Z,19.07
2018-08-13T22:00:26.261Z,19.53
2018-08-13T22:02:54.785Z,20.77
2018-08-13T22:05:22.891Z,20.53
2018-08-13T22:07:51.026Z,19.73
2018-08-13T22:10:19.092Z,20.47
2018-08-13T22:12:47.210Z,18.10
2018-08-13T22:15:33.899Z,17.23
2018-08-13T22:18:04.226Z,18.33
2018-08-13T22:20:33.675Z,19.00
2018-08-13T22:23:02.428Z,18.47
2018-08-13T22:25:32.915Z,18.27
2018-08-13T22:28:04.163Z,16.87
2018-08-13T22:30:32.975Z,20.10
2018-08-13T22:33:01.120Z,17.10
2018-08-13T22:38:03.721Z,18.03
2018-08-13T22:40:31.891Z,17.83
2018-08-13T22:43:00.037Z,18.73
2018-08-13T22:45:28.056Z,19.83
2018-08-13T22:47:56.125Z,17.63
2018-08-13T22:50:24.201Z,17.83
2018-08-13T22:52:52.348Z,18.43
2018-08-13T22:55:20.456Z,16.70
2018-08-13T22:57:49.269Z,17.47
2018-08-13T23:00:20.433Z,19.97
2018-08-13T23:02:49.453Z,18.27
2018-08-13T23:05:19.984Z,21.63
2018-08-13T23:07:48.352Z,20.50
2018-08-13T23:10:17.919Z,20.50
2018-08-13T23:12:47.078Z,19.73
2018-08-13T23:15:15.875Z,16.97
2018-08-13T23:17:44.712Z,18.00
2018-08-13T23:20:16.883Z,21.05
2018-08-13T23:22:48.886Z,19.43
2018-08-13T23:25:17.783Z,18.37
2018-08-13T23:27:46.337Z,20.33
2018-08-13T23:30:15.550Z,20.37
2018-08-13T23:32:44.664Z,20.83
2018-08-13T23:35:12.803Z,18.70
2018-08-13T23:37:41.252Z,21.23
2018-08-13T23:40:09.836Z,21.10
2018-08-13T23:42:38.239Z,20.53
2018-08-13T23:45:09.091Z,20.60
2018-08-13T23:47:37.224Z,21.00
2018-08-13T23:50:07.082Z,22.10
2018-08-13T23:52:35.207Z,21.27
2018-08-13T23:55:03.499Z,22.00
2018-08-13T23:57:31.585Z,21.63
2018-08-13T23:59:59.696Z,20.63
